sensor_id;sensor_type;location;lat;lon;timestamp;pressure;altitude;pressure_sealevel;temperature;humidity
70921;BME280;58572;48.110;19.838;2022-11-20T00:01:17;97448.16;;;1.62;77.33
70921;BME280;58572;48.110;19.838;2022-11-20T00:03:45;97373.50;;;1.25;77.39
70921;BME280;58572;48.110;19.838;2022-11-20T00:06:16;97318.25;;;0.96;77.06
70921;BME280;58572;48.110;19.838;2022-11-20T00:08:44;97461.53;;;1.74;77.44
70921;BME280;58572;48.110;19.838;2022-11-20T00:11:12;97455.34;;;1.73;77.29
70921;BME280;58572;48.110;19.838;2022-11-20T00:13:39;97462.34;;;1.74;77.69
70921;BME280;58572;48.110;19.838;2022-11-20T00:16:09;97456.50;;;1.77;77.48
70921;BME280;58572;48.110;19.838;2022-11-20T00:18:37;97455.22;;;1.80;77.09
70921;BME280;58572;48.110;19.838;2022-11-20T00:21:06;97443.75;;;1.56;77.86
70921;BME280;58572;48.110;19.838;2022-11-20T00:23:35;97435.66;;;1.27;77.54
70921;BME280;58572;48.110;19.838;2022-11-20T00:26:02;97448.25;;;1.15;79.34
70921;BME280;58572;48.110;19.838;2022-11-20T00:28:30;97360.47;;;1.17;77.58
70921;BME280;58572;48.110;19.838;2022-11-20T00:31:01;97420.69;;;1.55;77.88
70921;BME280;58572;48.110;19.838;2022-11-20T00:33:29;97418.59;;;1.57;77.88
70921;BME280;58572;48.110;19.838;2022-11-20T00:36:00;97413.63;;;1.77;77.53
70921;BME280;58572;48.110;19.838;2022-11-20T00:38:27;97420.72;;;1.83;77.18
70921;BME280;58572;48.110;19.838;2022-11-20T00:40:58;97443.44;;;0.82;77.15
70921;BME280;58572;48.110;19.838;2022-11-20T00:43:25;97446.09;;;1.52;78.21
70921;BME280;58572;48.110;19.838;2022-11-20T00:45:57;97396.53;;;1.26;77.30
70921;BME280;58572;48.110;19.838;2022-11-20T00:48:24;97457.44;;;1.71;77.78
70921;BME280;58572;48.110;19.838;2022-11-20T00:50:52;97383.06;;;1.21;77.73
70921;BME280;58572;48.110;19.838;2022-11-20T00:53:19;97466.06;;;1.73;77.18
70921;BME280;58572;48.110;19.838;2022-11-20T00:55:53;97469.69;;;1.67;77.13
70921;BME280;58572;48.110;19.838;2022-11-20T00:58:22;97464.63;;;1.42;78.33
70921;BME280;58572;48.110;19.838;2022-11-20T01:00:50;97467.69;;;1.11;78.99
70921;BME280;58572;48.110;19.838;2022-11-20T01:03:18;97474.59;;;1.58;78.31
70921;BME280;58572;48.110;19.838;2022-11-20T01:05:45;97485.59;;;1.10;77.37
70921;BME280;58572;48.110;19.838;2022-11-20T01:08:12;97476.09;;;0.61;80.95
70921;BME280;58572;48.110;19.838;2022-11-20T01:10:39;97470.31;;;1.46;78.83
70921;BME280;58572;48.110;19.838;2022-11-20T01:13:06;97465.63;;;1.65;77.49
70921;BME280;58572;48.110;19.838;2022-11-20T01:15:52;97475.28;;;1.66;77.30
70921;BME280;58572;48.110;19.838;2022-11-20T01:18:19;97433.00;;;1.04;77.99
70921;BME280;58572;48.110;19.838;2022-11-20T01:20:46;97437.06;;;1.18;78.16
70921;BME280;58572;48.110;19.838;2022-11-20T01:23:13;97476.31;;;1.76;77.43
70921;BME280;58572;48.110;19.838;2022-11-20T01:25:40;97475.22;;;1.89;76.73
70921;BME280;58572;48.110;19.838;2022-11-20T01:28:07;97370.97;;;1.07;76.60
70921;BME280;58572;48.110;19.838;2022-11-20T01:30:34;97459.47;;;1.52;77.78
70921;BME280;58572;48.110;19.838;2022-11-20T01:33:03;97469.28;;;1.47;78.34
70921;BME280;58572;48.110;19.838;2022-11-20T01:35:30;97466.81;;;1.57;77.95
70921;BME280;58572;48.110;19.838;2022-11-20T01:37:57;97456.59;;;1.31;77.72
70921;BME280;58572;48.110;19.838;2022-11-20T01:40:24;97452.88;;;1.32;77.93
70921;BME280;58572;48.110;19.838;2022-11-20T01:43:01;97452.19;;;1.76;77.15
70921;BME280;58572;48.110;19.838;2022-11-20T01:46:02;97400.41;;;0.84;76.14
70921;BME280;58572;48.110;19.838;2022-11-20T01:48:34;97433.09;;;1.33;78.49
70921;BME280;58572;48.110;19.838;2022-11-20T01:51:04;97429.50;;;1.67;77.45
70921;BME280;58572;48.110;19.838;2022-11-20T01:53:36;97429.94;;;1.36;78.36
70921;BME280;58572;48.110;19.838;2022-11-20T01:56:06;97419.59;;;1.68;76.98
70921;BME280;58572;48.110;19.838;2022-11-20T01:58:38;97413.09;;;1.64;77.70
70921;BME280;58572;48.110;19.838;2022-11-20T02:01:07;97414.72;;;1.01;77.22
70921;BME280;58572;48.110;19.838;2022-11-20T02:03:36;97355.41;;;0.57;79.57
70921;BME280;58572;48.110;19.838;2022-11-20T02:06:07;97409.97;;;1.55;77.83
70921;BME280;58572;48.110;19.838;2022-11-20T02:08:37;97405.63;;;1.66;77.23
70921;BME280;58572;48.110;19.838;2022-11-20T02:11:05;97405.72;;;1.31;77.74
70921;BME280;58572;48.110;19.838;2022-11-20T02:13:33;97401.75;;;1.45;77.95
70921;BME280;58572;48.110;19.838;2022-11-20T02:16:17;97399.09;;;1.33;78.04
70921;BME280;58572;48.110;19.838;2022-11-20T02:18:48;97394.09;;;1.65;77.46
70921;BME280;58572;48.110;19.838;2022-11-20T02:21:27;97397.53;;;1.49;77.26
70921;BME280;58572;48.110;19.838;2022-11-20T02:24:04;97395.06;;;1.59;76.68
70921;BME280;58572;48.110;19.838;2022-11-20T02:26:37;97396.97;;;1.47;77.94
70921;BME280;58572;48.110;19.838;2022-11-20T02:29:05;97388.75;;;1.65;77.47
70921;BME280;58572;48.110;19.838;2022-11-20T02:31:41;97383.00;;;1.45;76.23
70921;BME280;58572;48.110;19.838;2022-11-20T02:34:09;97301.69;;;0.01;78.10
70921;BME280;58572;48.110;19.838;2022-11-20T02:36:38;97374.47;;;0.73;78.45
70921;BME280;58572;48.110;19.838;2022-11-20T02:39:09;97359.25;;;1.37;78.43
70921;BME280;58572;48.110;19.838;2022-11-20T02:41:38;97355.25;;;0.87;79.31
70921;BME280;58572;48.110;19.838;2022-11-20T02:44:05;97345.38;;;0.88;79.79
70921;BME280;58572;48.110;19.838;2022-11-20T02:46:32;97345.00;;;1.19;78.63
70921;BME280;58572;48.110;19.838;2022-11-20T02:49:01;97353.50;;;0.93;78.73
70921;BME280;58572;48.110;19.838;2022-11-20T02:51:28;97347.81;;;0.19;78.73
70921;BME280;58572;48.110;19.838;2022-11-20T02:53:55;97351.41;;;0.02;79.24
70921;BME280;58572;48.110;19.838;2022-11-20T02:56:24;97340.28;;;-0.55;79.73
70921;BME280;58572;48.110;19.838;2022-11-20T02:58:52;97249.78;;;-1.05;79.59
70921;BME280;58572;48.110;19.838;2022-11-20T03:01:19;97242.59;;;-0.33;79.60
70921;BME280;58572;48.110;19.838;2022-11-20T03:03:46;97225.88;;;-0.40;79.81
70921;BME280;58572;48.110;19.838;2022-11-20T03:06:14;97336.56;;;0.76;78.79
70921;BME280;58572;48.110;19.838;2022-11-20T03:08:41;97343.03;;;0.10;78.38
70921;BME280;58572;48.110;19.838;2022-11-20T03:11:09;97341.56;;;0.25;79.41
70921;BME280;58572;48.110;19.838;2022-11-20T03:13:37;97341.66;;;0.19;76.05
70921;BME280;58572;48.110;19.838;2022-11-20T03:16:09;97344.69;;;0.34;76.63
70921;BME280;58572;48.110;19.838;2022-11-20T03:18:37;97347.00;;;0.89;76.36
70921;BME280;58572;48.110;19.838;2022-11-20T03:21:04;97331.81;;;1.30;76.63
70921;BME280;58572;48.110;19.838;2022-11-20T03:23:32;97334.69;;;0.64;74.51
70921;BME280;58572;48.110;19.838;2022-11-20T03:26:10;97342.56;;;0.94;74.65
70921;BME280;58572;48.110;19.838;2022-11-20T03:28:39;97347.53;;;1.26;76.76
70921;BME280;58572;48.110;19.838;2022-11-20T03:31:07;97240.03;;;0.66;75.23
70921;BME280;58572;48.110;19.838;2022-11-20T03:33:35;97357.34;;;0.97;77.82
70921;BME280;58572;48.110;19.838;2022-11-20T03:36:02;97371.56;;;0.39;77.37
70921;BME280;58572;48.110;19.838;2022-11-20T03:38:29;97374.09;;;1.16;77.76
70921;BME280;58572;48.110;19.838;2022-11-20T03:41:01;97286.81;;;1.03;75.54
70921;BME280;58572;48.110;19.838;2022-11-20T03:43:29;97376.53;;;1.57;75.87
70921;BME280;58572;48.110;19.838;2022-11-20T03:45:57;97365.97;;;1.51;76.47
70921;BME280;58572;48.110;19.838;2022-11-20T03:48:25;97354.63;;;1.60;76.08
70921;BME280;58572;48.110;19.838;2022-11-20T03:50:52;97340.34;;;1.15;77.89
70921;BME280;58572;48.110;19.838;2022-11-20T03:53:20;97370.06;;;1.42;77.55
70921;BME280;58572;48.110;19.838;2022-11-20T03:55:51;97372.72;;;1.53;76.31
70921;BME280;58572;48.110;19.838;2022-11-20T03:58:18;97337.97;;;0.55;76.21
70921;BME280;58572;48.110;19.838;2022-11-20T04:00:45;97370.84;;;1.14;77.57
70921;BME280;58572;48.110;19.838;2022-11-20T04:03:14;97281.84;;;0.95;76.89
70921;BME280;58572;48.110;19.838;2022-11-20T04:05:41;97333.16;;;1.44;76.55
70921;BME280;58572;48.110;19.838;2022-11-20T04:08:07;97347.31;;;1.56;76.41
70921;BME280;58572;48.110;19.838;2022-11-20T04:10:35;97349.63;;;1.64;76.44
70921;BME280;58572;48.110;19.838;2022-11-20T04:13:02;97315.84;;;1.35;76.39
70921;BME280;58572;48.110;19.838;2022-11-20T04:15:28;97348.94;;;1.57;76.69
70921;BME280;58572;48.110;19.838;2022-11-20T04:17:55;97337.91;;;1.53;76.46
70921;BME280;58572;48.110;19.838;2022-11-20T04:20:24;97336.59;;;1.56;76.61
70921;BME280;58572;48.110;19.838;2022-11-20T04:22:53;97342.28;;;1.59;76.83
70921;BME280;58572;48.110;19.838;2022-11-20T04:25:20;97344.06;;;1.14;77.87
70921;BME280;58572;48.110;19.838;2022-11-20T04:27:47;97339.00;;;1.41;77.29
70921;BME280;58572;48.110;19.838;2022-11-20T04:30:14;97340.72;;;1.75;75.85
70921;BME280;58572;48.110;19.838;2022-11-20T04:32:41;97322.81;;;1.64;75.78
70921;BME280;58572;48.110;19.838;2022-11-20T04:35:08;97321.69;;;1.60;76.50
70921;BME280;58572;48.110;19.838;2022-11-20T04:37:37;97330.88;;;1.64;76.08
70921;BME280;58572;48.110;19.838;2022-11-20T04:40:04;97341.19;;;1.72;75.39
70921;BME280;58572;48.110;19.838;2022-11-20T04:42:32;97325.84;;;1.68;76.13
70921;BME280;58572;48.110;19.838;2022-11-20T04:44:59;97324.44;;;1.65;76.17
70921;BME280;58572;48.110;19.838;2022-11-20T04:47:25;97329.47;;;1.62;76.75
70921;BME280;58572;48.110;19.838;2022-11-20T04:49:52;97335.66;;;1.62;76.88
70921;BME280;58572;48.110;19.838;2022-11-20T04:52:19;97139.69;;;0.23;76.44
70921;BME280;58572;48.110;19.838;2022-11-20T04:54:48;97334.03;;;1.61;76.63
70921;BME280;58572;48.110;19.838;2022-11-20T04:57:18;97336.66;;;1.73;76.24
70921;BME280;58572;48.110;19.838;2022-11-20T04:59:45;97319.66;;;1.67;76.91
70921;BME280;58572;48.110;19.838;2022-11-20T05:02:12;97318.63;;;1.68;76.37
70921;BME280;58572;48.110;19.838;2022-11-20T05:04:39;97197.66;;;0.86;76.46
70921;BME280;58572;48.110;19.838;2022-11-20T05:07:06;97311.53;;;1.62;76.41
70921;BME280;58572;48.110;19.838;2022-11-20T05:09:33;97315.75;;;1.58;76.68
70921;BME280;58572;48.110;19.838;2022-11-20T05:12:01;97308.00;;;1.45;76.97
70921;BME280;58572;48.110;19.838;2022-11-20T05:14:28;97300.25;;;1.60;77.23
70921;BME280;58572;48.110;19.838;2022-11-20T05:16:55;97289.41;;;1.38;77.38
70921;BME280;58572;48.110;19.838;2022-11-20T05:19:22;97288.97;;;1.58;76.90
70921;BME280;58572;48.110;19.838;2022-11-20T05:21:49;97164.31;;;1.05;76.22
70921;BME280;58572;48.110;19.838;2022-11-20T05:24:16;97260.16;;;1.65;76.86
70921;BME280;58572;48.110;19.838;2022-11-20T05:26:43;97251.06;;;1.66;76.86
70921;BME280;58572;48.110;19.838;2022-11-20T05:29:12;97119.31;;;0.74;76.58
70921;BME280;58572;48.110;19.838;2022-11-20T05:31:40;97168.22;;;1.14;76.93
70921;BME280;58572;48.110;19.838;2022-11-20T05:34:07;97251.06;;;1.66;76.91
70921;BME280;58572;48.110;19.838;2022-11-20T05:36:34;97248.63;;;1.65;76.82
70921;BME280;58572;48.110;19.838;2022-11-20T05:39:01;97243.59;;;1.68;76.77
70921;BME280;58572;48.110;19.838;2022-11-20T05:41:28;97131.38;;;1.05;76.37
70921;BME280;58572;48.110;19.838;2022-11-20T05:43:56;97178.53;;;1.22;76.32
70921;BME280;58572;48.110;19.838;2022-11-20T05:46:26;97255.78;;;1.76;76.26
70921;BME280;58572;48.110;19.838;2022-11-20T05:48:55;97159.81;;;0.94;76.08
70921;BME280;58572;48.110;19.838;2022-11-20T05:51:22;97278.50;;;1.56;77.24
70921;BME280;58572;48.110;19.838;2022-11-20T05:53:49;97268.75;;;1.67;76.82
70921;BME280;58572;48.110;19.838;2022-11-20T05:56:18;97261.78;;;1.66;76.31
70921;BME280;58572;48.110;19.838;2022-11-20T05:58:46;97261.53;;;1.68;76.57
70921;BME280;58572;48.110;19.838;2022-11-20T06:01:15;97264.84;;;1.58;76.95
70921;BME280;58572;48.110;19.838;2022-11-20T06:03:44;97270.88;;;1.65;76.83
70921;BME280;58572;48.110;19.838;2022-11-20T06:06:13;97229.28;;;1.46;76.63
70921;BME280;58572;48.110;19.838;2022-11-20T06:08:40;97278.50;;;1.73;76.75
70921;BME280;58572;48.110;19.838;2022-11-20T06:11:09;97137.81;;;0.92;76.05
70921;BME280;58572;48.110;19.838;2022-11-20T06:13:37;97202.94;;;1.09;76.00
70921;BME280;58572;48.110;19.838;2022-11-20T06:16:04;97288.56;;;1.66;76.62
70921;BME280;58572;48.110;19.838;2022-11-20T06:18:32;97295.38;;;0.77;77.16
70921;BME280;58572;48.110;19.838;2022-11-20T06:21:02;97293.19;;;0.62;78.56
70921;BME280;58572;48.110;19.838;2022-11-20T06:23:30;97277.28;;;0.44;78.20
70921;BME280;58572;48.110;19.838;2022-11-20T06:25:58;97278.53;;;1.16;78.27
70921;BME280;58572;48.110;19.838;2022-11-20T06:28:27;97287.53;;;1.39;77.87
70921;BME280;58572;48.110;19.838;2022-11-20T06:30:54;97293.31;;;1.47;77.37
70921;BME280;58572;48.110;19.838;2022-11-20T06:33:21;97301.78;;;1.56;76.57
70921;BME280;58572;48.110;19.838;2022-11-20T06:35:48;97312.06;;;1.47;77.04
70921;BME280;58572;48.110;19.838;2022-11-20T06:38:16;97249.25;;;1.38;76.43
70921;BME280;58572;48.110;19.838;2022-11-20T06:40:43;97309.53;;;1.12;77.65
70921;BME280;58572;48.110;19.838;2022-11-20T06:43:10;97306.19;;;1.34;77.52
70921;BME280;58572;48.110;19.838;2022-11-20T06:45:38;97118.44;;;0.56;76.52
70921;BME280;58572;48.110;19.838;2022-11-20T06:48:05;97220.09;;;1.25;76.25
70921;BME280;58572;48.110;19.838;2022-11-20T06:50:32;97305.47;;;1.83;75.77
70921;BME280;58572;48.110;19.838;2022-11-20T06:53:01;97316.97;;;1.67;76.44
70921;BME280;58572;48.110;19.838;2022-11-20T06:55:31;97311.53;;;1.62;76.78
70921;BME280;58572;48.110;19.838;2022-11-20T06:57:58;97202.94;;;1.09;76.92
70921;BME280;58572;48.110;19.838;2022-11-20T07:00:25;97300.34;;;1.65;76.94
70921;BME280;58572;48.110;19.838;2022-11-20T07:02:52;97293.34;;;1.64;76.59
70921;BME280;58572;48.110;19.838;2022-11-20T07:05:19;97293.63;;;1.79;76.31
70921;BME280;58572;48.110;19.838;2022-11-20T07:07:45;97293.94;;;1.83;76.17
70921;BME280;58572;48.110;19.838;2022-11-20T07:10:12;97289.41;;;1.83;76.42
70921;BME280;58572;48.110;19.838;2022-11-20T07:12:41;97303.53;;;1.79;76.33
70921;BME280;58572;48.110;19.838;2022-11-20T07:15:08;97160.47;;;1.01;75.64
70921;BME280;58572;48.110;19.838;2022-11-20T07:17:35;97289.00;;;1.75;76.28
70921;BME280;58572;48.110;19.838;2022-11-20T07:20:02;97309.38;;;1.92;76.24
70921;BME280;58572;48.110;19.838;2022-11-20T07:22:29;97315.06;;;1.96;75.92
70921;BME280;58572;48.110;19.838;2022-11-20T07:24:56;97307.75;;;1.91;75.48
70921;BME280;58572;48.110;19.838;2022-11-20T07:27:25;97226.78;;;1.56;75.17
70921;BME280;58572;48.110;19.838;2022-11-20T07:29:53;97297.69;;;1.99;75.90
70921;BME280;58572;48.110;19.838;2022-11-20T07:32:20;97229.78;;;1.43;75.93
70921;BME280;58572;48.110;19.838;2022-11-20T07:34:47;97300.16;;;2.17;74.71
70921;BME280;58572;48.110;19.838;2022-11-20T07:37:15;97224.00;;;1.06;76.93
70921;BME280;58572;48.110;19.838;2022-11-20T07:39:42;97323.34;;;1.49;77.75
70921;BME280;58572;48.110;19.838;2022-11-20T07:42:09;97313.59;;;1.88;76.69
70921;BME280;58572;48.110;19.838;2022-11-20T07:44:37;97312.47;;;2.01;75.62
70921;BME280;58572;48.110;19.838;2022-11-20T07:47:06;97146.28;;;1.01;75.60
70921;BME280;58572;48.110;19.838;2022-11-20T07:49:33;97297.03;;;1.75;76.62
70921;BME280;58572;48.110;19.838;2022-11-20T07:52:00;97297.03;;;1.91;76.36
70921;BME280;58572;48.110;19.838;2022-11-20T07:54:27;97298.84;;;2.03;75.78
70921;BME280;58572;48.110;19.838;2022-11-20T07:56:54;97301.69;;;1.96;76.15
70921;BME280;58572;48.110;19.838;2022-11-20T07:59:21;97304.03;;;1.92;76.55
70921;BME280;58572;48.110;19.838;2022-11-20T08:01:48;97301.22;;;2.16;75.48
70921;BME280;58572;48.110;19.838;2022-11-20T08:04:16;97304.00;;;1.76;76.80
70921;BME280;58572;48.110;19.838;2022-11-20T08:06:44;97316.63;;;1.92;76.92
70921;BME280;58572;48.110;19.838;2022-11-20T08:09:11;97320.66;;;2.23;75.08
70921;BME280;58572;48.110;19.838;2022-11-20T08:11:38;97317.88;;;2.51;74.50
70921;BME280;58572;48.110;19.838;2022-11-20T08:14:22;97320.00;;;2.16;76.06
70921;BME280;58572;48.110;19.838;2022-11-20T08:16:49;97322.75;;;2.38;75.21
70921;BME280;58572;48.110;19.838;2022-11-20T08:19:18;97323.06;;;2.41;74.77
70921;BME280;58572;48.110;19.838;2022-11-20T08:21:45;97180.03;;;1.47;75.10
70921;BME280;58572;48.110;19.838;2022-11-20T08:24:12;97310.38;;;2.53;74.70
70921;BME280;58572;48.110;19.838;2022-11-20T08:26:40;97303.31;;;1.97;75.87
70921;BME280;58572;48.110;19.838;2022-11-20T08:29:07;97321.41;;;2.07;76.24
70921;BME280;58572;48.110;19.838;2022-11-20T08:31:34;97325.19;;;2.39;76.10
70921;BME280;58572;48.110;19.838;2022-11-20T08:34:01;97330.38;;;2.46;75.99
70921;BME280;58572;48.110;19.838;2022-11-20T08:36:32;97339.31;;;2.68;75.15
70921;BME280;58572;48.110;19.838;2022-11-20T08:39:00;97353.31;;;2.92;73.92
70921;BME280;58572;48.110;19.838;2022-11-20T08:41:28;97349.78;;;2.70;75.50
70921;BME280;58572;48.110;19.838;2022-11-20T08:43:59;97352.28;;;2.93;74.47
70921;BME280;58572;48.110;19.838;2022-11-20T08:46:30;97356.47;;;3.06;75.15
70921;BME280;58572;48.110;19.838;2022-11-20T08:48:59;97355.09;;;2.31;76.62
70921;BME280;58572;48.110;19.838;2022-11-20T08:51:26;97353.47;;;2.30;76.99
70921;BME280;58572;48.110;19.838;2022-11-20T08:53:54;97366.72;;;1.91;77.33
70921;BME280;58572;48.110;19.838;2022-11-20T08:56:21;97366.56;;;1.98;78.24
70921;BME280;58572;48.110;19.838;2022-11-20T08:58:49;97342.38;;;1.93;77.44
70921;BME280;58572;48.110;19.838;2022-11-20T09:01:16;97353.25;;;1.86;77.02
70921;BME280;58572;48.110;19.838;2022-11-20T09:03:43;97343.56;;;2.47;76.94
70921;BME280;58572;48.110;19.838;2022-11-20T09:06:10;97348.84;;;2.42;76.90
70921;BME280;58572;48.110;19.838;2022-11-20T09:08:37;97359.47;;;2.20;76.32
70921;BME280;58572;48.110;19.838;2022-11-20T09:11:06;97344.03;;;2.61;74.98
70921;BME280;58572;48.110;19.838;2022-11-20T09:13:34;97337.22;;;2.53;76.23
70921;BME280;58572;48.110;19.838;2022-11-20T09:16:04;97330.16;;;2.47;76.70
70921;BME280;58572;48.110;19.838;2022-11-20T09:18:33;97271.53;;;2.06;76.02
70921;BME280;58572;48.110;19.838;2022-11-20T09:21:04;97339.13;;;2.75;76.57
70921;BME280;58572;48.110;19.838;2022-11-20T09:23:33;97338.28;;;2.91;75.49
70921;BME280;58572;48.110;19.838;2022-11-20T09:26:02;97327.78;;;2.89;74.82
70921;BME280;58572;48.110;19.838;2022-11-20T09:28:31;97317.44;;;2.98;74.24
70921;BME280;58572;48.110;19.838;2022-11-20T09:30:58;97214.16;;;2.40;74.04
70921;BME280;58572;48.110;19.838;2022-11-20T09:33:26;97327.78;;;2.89;75.02
70921;BME280;58572;48.110;19.838;2022-11-20T09:35:53;97259.16;;;2.55;74.22
70921;BME280;58572;48.110;19.838;2022-11-20T09:38:20;97335.25;;;3.48;72.14
70921;BME280;58572;48.110;19.838;2022-11-20T09:40:54;97344.84;;;3.17;73.43
70921;BME280;58572;48.110;19.838;2022-11-20T09:43:29;97351.66;;;2.69;75.74
70921;BME280;58572;48.110;19.838;2022-11-20T09:46:06;97343.72;;;2.58;75.82
70921;BME280;58572;48.110;19.838;2022-11-20T09:51:36;97320.56;;;2.90;75.58
70921;BME280;58572;48.110;19.838;2022-11-20T09:54:13;97334.09;;;2.78;76.94
70921;BME280;58572;48.110;19.838;2022-11-20T09:56:43;97330.63;;;3.00;74.28
70921;BME280;58572;48.110;19.838;2022-11-20T09:59:25;97339.78;;;3.20;75.65
70921;BME280;58572;48.110;19.838;2022-11-20T10:01:56;97328.25;;;3.47;73.42
70921;BME280;58572;48.110;19.838;2022-11-20T10:04:24;97337.72;;;3.28;75.92
70921;BME280;58572;48.110;19.838;2022-11-20T10:06:56;97258.56;;;2.92;75.40
70921;BME280;58572;48.110;19.838;2022-11-20T10:09:29;97321.97;;;3.36;75.14
70921;BME280;58572;48.110;19.838;2022-11-20T10:12:06;97319.09;;;3.43;75.76
70921;BME280;58572;48.110;19.838;2022-11-20T10:14:47;97312.91;;;3.20;75.21
70921;BME280;58572;48.110;19.838;2022-11-20T10:17:25;97243.75;;;2.89;75.92
70921;BME280;58572;48.110;19.838;2022-11-20T10:20:09;97312.53;;;3.34;74.18
70921;BME280;58572;48.110;19.838;2022-11-20T10:22:50;97314.31;;;3.06;74.90
70921;BME280;58572;48.110;19.838;2022-11-20T10:25:34;97303.38;;;2.91;74.92
70921;BME280;58572;48.110;19.838;2022-11-20T10:28:15;97300.91;;;3.28;75.46
70921;BME280;58572;48.110;19.838;2022-11-20T10:30:48;97307.53;;;3.69;74.35
70921;BME280;58572;48.110;19.838;2022-11-20T10:33:21;97240.22;;;3.54;73.60
70921;BME280;58572;48.110;19.838;2022-11-20T10:35:57;97278.94;;;3.58;73.74
70921;BME280;58572;48.110;19.838;2022-11-20T10:38:34;97288.13;;;3.13;72.97
70921;BME280;58572;48.110;19.838;2022-11-20T10:41:03;97275.03;;;3.44;72.88
70921;BME280;58572;48.110;19.838;2022-11-20T10:43:53;97203.44;;;2.40;73.58
70921;BME280;58572;48.110;19.838;2022-11-20T10:46:23;97188.34;;;2.78;74.18
70921;BME280;58572;48.110;19.838;2022-11-20T10:48:52;97277.00;;;3.27;73.87
70921;BME280;58572;48.110;19.838;2022-11-20T10:51:30;97275.50;;;3.63;71.10
70921;BME280;58572;48.110;19.838;2022-11-20T10:54:06;97163.22;;;2.89;71.71
70921;BME280;58572;48.110;19.838;2022-11-20T10:56:40;97290.69;;;3.25;71.44
70921;BME280;58572;48.110;19.838;2022-11-20T10:59:41;97288.75;;;3.20;72.35
70921;BME280;58572;48.110;19.838;2022-11-20T11:02:16;97275.09;;;3.49;72.68
70921;BME280;58572;48.110;19.838;2022-11-20T11:04:46;97270.38;;;3.12;73.47
70921;BME280;58572;48.110;19.838;2022-11-20T11:07:16;97177.38;;;2.58;71.55
70921;BME280;58572;48.110;19.838;2022-11-20T11:09:48;97255.94;;;3.18;72.66
70921;BME280;58572;48.110;19.838;2022-11-20T11:12:15;97298.59;;;2.93;72.19
70921;BME280;58572;48.110;19.838;2022-11-20T11:14:45;97206.06;;;2.79;72.38
70921;BME280;58572;48.110;19.838;2022-11-20T11:17:27;97299.84;;;3.78;71.97
70921;BME280;58572;48.110;19.838;2022-11-20T11:20:05;97293.84;;;3.44;72.57
70921;BME280;58572;48.110;19.838;2022-11-20T11:22:35;97212.69;;;2.93;72.88
70921;BME280;58572;48.110;19.838;2022-11-20T11:25:19;97290.41;;;3.48;74.36
70921;BME280;58572;48.110;19.838;2022-11-20T11:27:46;97274.72;;;3.40;73.22
70921;BME280;58572;48.110;19.838;2022-11-20T11:30:16;97276.16;;;4.07;71.52
70921;BME280;58572;48.110;19.838;2022-11-20T11:32:44;97277.25;;;4.11;72.21
70921;BME280;58572;48.110;19.838;2022-11-20T11:35:44;97274.03;;;4.09;71.19
70921;BME280;58572;48.110;19.838;2022-11-20T11:38:14;97272.56;;;3.64;72.47
70921;BME280;58572;48.110;19.838;2022-11-20T11:40:42;97279.59;;;3.70;72.61
70921;BME280;58572;48.110;19.838;2022-11-20T11:43:18;97272.91;;;4.05;71.77
70921;BME280;58572;48.110;19.838;2022-11-20T11:46:00;97266.88;;;4.62;71.82
70921;BME280;58572;48.110;19.838;2022-11-20T11:48:27;97264.56;;;4.80;71.80
70921;BME280;58572;48.110;19.838;2022-11-20T11:50:56;97261.13;;;4.95;72.84
70921;BME280;58572;48.110;19.838;2022-11-20T11:53:24;97259.22;;;4.91;71.96
70921;BME280;58572;48.110;19.838;2022-11-20T11:55:58;97275.56;;;4.00;72.80
70921;BME280;58572;48.110;19.838;2022-11-20T11:58:42;97266.78;;;4.46;72.95
70921;BME280;58572;48.110;19.838;2022-11-20T12:01:21;97247.94;;;4.46;72.77
70921;BME280;58572;48.110;19.838;2022-11-20T12:03:58;97263.75;;;4.80;71.97
70921;BME280;58572;48.110;19.838;2022-11-20T12:06:29;97267.72;;;4.25;72.23
70921;BME280;58572;48.110;19.838;2022-11-20T12:09:01;97262.56;;;4.61;72.99
70921;BME280;58572;48.110;19.838;2022-11-20T12:11:34;97265.00;;;4.62;72.39
70921;BME280;58572;48.110;19.838;2022-11-20T12:14:13;97270.25;;;4.10;73.29
70921;BME280;58572;48.110;19.838;2022-11-20T12:16:42;97271.81;;;4.01;74.87
70921;BME280;58572;48.110;19.838;2022-11-20T12:19:11;97170.47;;;3.37;73.77
70921;BME280;58572;48.110;19.838;2022-11-20T12:21:49;97266.00;;;3.82;74.49
70921;BME280;58572;48.110;19.838;2022-11-20T12:24:46;97266.06;;;4.19;73.95
70921;BME280;58572;48.110;19.838;2022-11-20T12:27:36;97269.53;;;3.88;74.00
70921;BME280;58572;48.110;19.838;2022-11-20T12:30:08;97276.63;;;3.99;74.37
70921;BME280;58572;48.110;19.838;2022-11-20T12:33:04;97131.84;;;3.16;74.38
70921;BME280;58572;48.110;19.838;2022-11-20T12:35:58;97261.16;;;4.16;74.38
70921;BME280;58572;48.110;19.838;2022-11-20T12:41:43;97218.25;;;3.94;74.65
70921;BME280;58572;48.110;19.838;2022-11-20T12:44:43;97261.59;;;4.03;73.79
70921;BME280;58572;48.110;19.838;2022-11-20T12:47:39;97259.72;;;4.35;74.89
70921;BME280;58572;48.110;19.838;2022-11-20T12:50:17;97267.47;;;4.69;73.24
70921;BME280;58572;48.110;19.838;2022-11-20T12:52:52;97120.63;;;3.94;73.40
70921;BME280;58572;48.110;19.838;2022-11-20T12:55:30;97260.63;;;4.14;74.92
70921;BME280;58572;48.110;19.838;2022-11-20T12:58:11;97210.34;;;3.82;75.89
70921;BME280;58572;48.110;19.838;2022-11-20T13:00:50;97261.84;;;4.33;75.27
70921;BME280;58572;48.110;19.838;2022-11-20T13:03:31;97253.28;;;3.72;76.66
70921;BME280;58572;48.110;19.838;2022-11-20T13:06:09;97246.81;;;4.37;74.91
70921;BME280;58572;48.110;19.838;2022-11-20T13:08:40;97235.97;;;4.22;75.42
70921;BME280;58572;48.110;19.838;2022-11-20T13:11:15;97236.59;;;4.39;75.18
70921;BME280;58572;48.110;19.838;2022-11-20T13:14:08;97230.56;;;4.22;76.03
70921;BME280;58572;48.110;19.838;2022-11-20T13:16:44;97225.41;;;4.58;74.83
70921;BME280;58572;48.110;19.838;2022-11-20T13:19:16;97230.66;;;4.32;75.66
70921;BME280;58572;48.110;19.838;2022-11-20T13:21:45;97225.75;;;4.24;75.85
70921;BME280;58572;48.110;19.838;2022-11-20T13:24:22;97219.81;;;4.22;76.33